EW5239 Weather Reports


time (UTC)temp
C
wind
direction
speed
KPH
gust
KPH
rain 1hr
cm
rain 24hr
cm
rain mn
cm
humidity
%
barometer
mb
20200606182459 16 273 1.6 3.2 0.13 3.91 0.13 82 1009.4
20200606181959 17 256 3.2 4.8 0.13 3.91 0.13 79 1009.4
20200606181459 17 237 3.2 4.8 0.10 3.86 0.10 78 1009.6
20200606180959 17 234 3.2 3.2 0.10 3.86 0.10 76 1009.3
20200606180459 17 246 3.2 3.2 0.05 3.84 0.05 74 1009.3
20200606180002 17 267 4.8 11.3 0.05 3.84 0.05 74 1009.1
20200606175459 18 275 6.4 11.3 0.05 3.84 0.05 72 1009.1
20200606174959 18 272 3.2 6.4 0.05 3.84 0.05 71 1009.0
20200606174459 19 251 3.2 6.4 0.05 3.84 0.05 67 1009.1
20200606173959 20 249 4.8 6.4 0.05 3.84 0.05 66 1009.1
20200606173458 20 229 3.2 6.4 0.00 3.78 0.00 63 1009.0
20200606172959 20 175 1.6 3.2 0.00 3.78 0.00 60 1008.6
20200606172459 20 139 1.6 3.2 0.00 3.78 0.00 59 1008.4
20200606171959 20 159 3.2 4.8 0.00 3.78 0.00 59 1008.4
20200606171459 20 182 4.8 6.4 0.00 3.78 0.00 57 1008.4
20200606170959 20 184 4.8 6.4 0.00 3.78 0.00 57 1008.5
20200606170459 20 192 4.8 8.0 0.00 3.78 0.00 56 1008.5
20200606170002 20 226 6.4 11.3 0.00 3.78 0.00 55 1008.4
20200606165459 20 218 8.0 12.9 0.00 3.78 0.00 55 1008.5
20200606164959 21 206 8.0 12.9 0.00 3.78 0.00 55 1008.5
20200606164459 21 202 9.7 11.3 0.00 3.78 0.00 54 1008.4
20200606163959 21 213 9.7 12.9 0.00 3.78 0.00 53 1008.3
20200606163458 21 225 9.7 12.9 0.00 3.78 0.00 53 1008.3
20200606162959 21 213 9.7 12.9 0.00 3.78 0.00 53 1008.3
20200606162459 21 189 9.7 14.5 0.00 3.78 0.00 53 1008.3
20200606161959 21 189 8.0 14.5 0.00 3.81 0.00 52 1008.3
20200606161459 21 210 9.7 14.5 0.00 3.81 0.00 52 1008.1
20200606161000 21 209 9.7 14.5 0.00 3.81 0.00 52 1008.2
20200606160458 21 216 11.3 17.7 0.00 3.81 0.00 51 1008.1
20200606160001 21 219 11.3 17.7 0.00 3.81 0.00 50 1008.2
20200606155459 21 221 12.9 17.7 0.00 3.81 0.00 50 1008.1
20200606154959 22 223 12.9 20.9 0.00 3.81 0.00 49 1008.1
20200606154459 22 231 14.5 25.7 0.00 3.81 0.00 48 1008.1
20200606153959 22 226 14.5 25.7 0.00 3.84 0.00 46 1008.0
20200606153459 22 218 11.3 19.3 0.00 3.84 0.00 48 1008.0
20200606152959 22 237 11.3 19.3 0.00 3.84 0.00 47 1008.1
20200606152458 22 244 14.5 24.1 0.00 3.84 0.00 48 1007.9
20200606151959 22 240 17.7 32.2 0.00 3.86 0.00 46 1007.9
20200606151459 22 225 19.3 32.2 0.00 3.91 0.00 46 1008.0
20200606150958 22 216 17.7 24.1 0.00 3.91 0.00 46 1008.1
20200606150459 22 225 16.1 20.9 0.00 3.91 0.00 46 1008.0
20200606150001 22 269 12.9 14.5 0.00 3.91 0.00 46 1008.0
20200606145458 22 269 12.9 14.5 0.00 3.91 0.00 46 1008.0
20200606144959 22 269 12.9 14.5 0.00 3.91 0.00 46 1007.9
20200606144459 22 269 12.9 14.5 0.00 3.91 0.00 46 1008.0
20200606143958 22 269 12.9 14.5 0.00 3.91 0.00 46 1007.9
20200606143459 22 265 12.9 14.5 0.00 3.91 0.00 46 1007.8
20200606143000 22 250 14.5 17.7 0.00 3.91 0.00 46 1007.9
20200606142512 22 239 17.7 25.7 0.00 3.91 0.00 46 1007.8
20200606141959 22 233 17.7 25.7 0.00 3.91 0.00 46 1007.7
20200606141458 22 225 11.3 19.3 0.00 3.91 0.00 49 1007.7
20200606140958 22 225 12.9 19.3 0.00 3.91 0.00 49 1007.8
20200606140459 22 228 12.9 19.3 0.00 3.91 0.00 49 1007.7
20200606140002 22 217 11.3 16.1 0.00 3.91 0.00 49 1007.7
20200606135458 22 225 11.3 17.7 0.00 3.91 0.00 48 1007.7
20200606134959 22 248 12.9 17.7 0.00 3.91 0.00 48 1007.7
20200606134459 21 256 12.9 20.9 0.00 3.91 0.00 49 1007.7
20200606133958 22 256 14.5 20.9 0.00 3.91 0.00 46 1007.6
20200606133458 22 259 16.1 25.7 0.00 3.91 0.00 45 1007.7
20200606132959 22 246 17.7 25.7 0.00 3.94 0.00 45 1007.8
20200606132459 23 230 17.7 25.7 0.00 3.94 0.00 46 1007.7
20200606131958 23 235 17.7 24.1 0.00 3.96 0.00 46 1007.8
20200606131459 23 261 19.3 27.4 0.00 3.99 0.00 45 1007.8
20200606130959 23 257 20.9 27.4 0.00 3.99 0.00 46 1007.7
20200606130458 23 256 19.3 37.0 0.00 3.99 0.00 47 1007.7
20200606130001 22 249 19.3 37.0 0.00 3.99 0.00 47 1007.7
20200606125459 22 221 17.7 25.7 0.00 3.99 0.00 48 1007.6
20200606124958 22 236 17.7 24.1 0.00 3.99 0.00 49 1007.7
20200606124458 21 221 16.1 22.5 0.00 3.99 0.00 50 1007.8
20200606123959 21 227 16.1 22.5 0.00 3.99 0.00 51 1007.8
20200606123459 21 223 16.1 19.3 0.00 3.99 0.00 50 1007.8
20200606122958 21 209 16.1 24.1 0.00 3.99 0.00 49 1007.8
20200606122459 21 213 17.7 24.1 0.00 3.99 0.00 49 1007.7
20200606121959 22 227 17.7 22.5 0.00 3.99 0.00 48 1007.8
20200606121458 22 237 16.1 22.5 0.00 3.99 0.00 48 1008.0
20200606120958 22 219 19.3 35.4 0.00 3.99 0.00 47 1007.9
20200606120459 22 226 19.3 35.4 0.00 3.99 0.00 44 1007.9
20200606120002 22 216 19.3 27.4 0.00 3.99 0.00 45 1008.0
20200606115458 22 200 17.7 27.4 0.00 3.99 0.00 46 1007.9
20200606114959 22 224 12.9 27.4 0.00 3.99 0.00 49 1007.8
20200606114459 21 220 17.7 27.4 0.00 4.01 0.00 50 1007.7
20200606113959 22 247 20.9 27.4 0.00 4.01 0.00 45 1007.8
20200606113458 22 261 17.7 22.5 0.00 4.01 0.00 46 1007.9
20200606112959 22 228 17.7 35.4 0.00 4.01 0.00 45 1007.9
20200606112458 21 221 20.9 35.4 0.00 4.01 0.00 45 1007.8
20200606111958 22 229 17.7 35.4 0.00 4.01 0.00 44 1007.7
20200606111459 22 233 14.5 17.7 0.00 4.01 0.00 44 1007.7
20200606110959 22 221 17.7 25.7 0.00 4.01 0.00 47 1007.6
20200606110459 21 222 20.9 27.4 0.00 4.01 0.00 45 1007.8
20200606110001 22 240 17.7 27.4 0.00 4.01 0.00 43 1007.7
20200606105459 21 274 14.5 17.7 0.00 4.01 0.00 49 1007.7
20200606104958 21 227 14.5 24.1 0.00 4.01 0.00 49 1007.6
20200606104458 21 228 14.5 24.1 0.00 4.01 0.00 47 1007.6
20200606103958 21 266 12.9 16.1 0.00 4.04 0.00 49 1007.6
20200606103458 21 273 14.5 19.3 0.00 4.04 0.00 49 1007.5
20200606102959 21 260 14.5 19.3 0.00 4.04 0.00 51 1007.6
20200606102458 20 240 14.5 22.5 0.00 4.09 0.00 48 1007.6
20200606102010 20 240 16.1 22.5 0.00 4.11 0.00 47 1007.5
20200606101459 20 245 16.1 19.3 0.00 4.11 0.00 47 1007.4
20200606100959 20 244 16.1 19.3 0.00 4.11 0.00 47 1007.5
20200606100507 21 242 17.7 24.1 0.00 4.11 0.00 48 1007.6
20200606100004 21 241 16.1 24.1 0.00 4.11 0.00 46 1007.5
20200606095459 21 248 16.1 24.1 0.00 4.11 0.00 48 1007.3
20200606094958 21 269 17.7 24.1 0.00 0.48 0.00 47 1007.4
20200606094459 21 269 16.1 20.9 0.00 0.48 0.00 52 1007.5
20200606093959 21 253 17.7 25.7 0.00 0.48 0.00 50 1007.3
20200606093458 21 254 17.7 25.7 0.00 0.48 0.00 50 1007.2
20200606092958 21 274 17.7 22.5 0.00 0.48 0.00 50 1007.3
20200606092459 21 268 14.5 19.3 0.00 0.48 0.00 51 1007.1
20200606091959 20 252 11.3 12.9 0.00 0.48 0.00 51 1007.2
20200606091458 20 275 14.5 25.7 0.00 0.48 0.00 53 1007.3
20200606090958 20 282 16.1 25.7 0.00 0.48 0.00 50 1007.3
20200606090459 20 260 17.7 29.0 0.00 0.48 0.00 53 1007.2
20200606090002 20 247 19.3 29.0 0.00 0.48 0.00 51 1007.3
20200606085459 20 231 17.7 24.1 0.00 0.48 0.00 48 1007.2
20200606084959 20 234 20.9 27.4 0.00 0.48 0.00 54 1007.3
20200606084458 19 256 19.3 27.4 0.00 0.48 0.00 52 1007.2
20200606083959 19 261 17.7 27.4 0.00 0.48 0.00 56 1007.1
20200606083458 19 242 17.7 27.4 0.00 0.48 0.00 54 1007.1
20200606082958 19 225 16.1 24.1 0.00 0.48 0.00 53 1007.0
20200606082459 19 227 14.5 24.1 0.00 0.48 0.00 58 1007.0
20200606081958 18 242 16.1 20.9 0.00 0.48 0.00 57 1006.9
20200606081458 18 257 17.7 24.1 0.00 0.48 0.00 59 1006.9
20200606080958 17 258 19.3 24.1 0.00 0.48 0.00 58 1006.9
20200606080459 17 251 19.3 24.1 0.00 0.48 0.00 56 1007.0
20200606080001 17 277 16.1 20.9 0.00 0.48 0.00 59 1007.0
20200606075459 17 282 16.1 19.3 0.00 0.48 0.00 59 1007.0
20200606074958 17 294 16.1 19.3 0.00 0.48 0.00 58 1006.9
20200606074458 17 300 16.1 20.9 0.00 0.48 0.00 59 1006.9
20200606073958 17 290 17.7 24.1 0.00 0.48 0.00 59 1006.8
20200606073458 17 276 20.9 29.0 0.00 0.48 0.00 61 1006.8
20200606072959 16 266 22.5 33.8 0.00 0.48 0.00 61 1006.8
20200606072458 16 267 22.5 33.8 0.00 0.48 0.00 62 1006.8
20200606071958 16 280 22.5 27.4 0.00 0.48 0.00 62 1006.8
20200606071459 16 293 22.5 30.6 0.00 0.48 0.00 62 1006.8
20200606070959 16 278 22.5 30.6 0.00 0.48 0.00 63 1006.7
20200606070459 16 268 20.9 27.4 0.00 0.48 0.00 64 1006.6
20200606070001 16 282 20.9 27.4 0.00 0.48 0.00 64 1006.6
20200606065458 16 254 20.9 27.4 0.00 0.48 0.00 65 1006.5
20200606064958 16 227 19.3 27.4 0.00 0.48 0.00 66 1006.6
20200606064458 16 225 24.1 33.8 0.00 0.48 0.00 68 1006.5
20200606062958 17 287 17.7 27.4 0.00 0.36 0.00 67 994.9
20200606062459 17 249 14.5 27.4 0.00 0.36 0.00 69 995.0
20200606061958 17 226 14.5 20.9 0.00 0.36 0.00 71 994.8
20200606061458 16 225 17.7 20.9 0.00 0.36 0.00 72 994.6
20200606060959 16 230 17.7 17.7 0.00 0.36 0.00 72 994.8
20200606060458 16 228 16.1 19.3 0.00 0.36 0.00 75 994.8
20200606055959 16 246 12.9 20.9 0.00 0.36 0.00 75 994.6
20200606055458 16 270 12.9 20.9 0.00 0.36 0.00 75 994.5
20200606054958 16 244 12.9 17.7 0.00 0.36 0.00 76 994.3
20200606054459 16 228 14.5 17.7 0.00 0.36 0.00 76 994.2
20200606053958 16 226 11.3 17.7 0.00 0.36 0.00 77 994.2
20200606053458 16 227 9.7 14.5 0.00 0.36 0.00 78 994.1
20200606052958 16 229 11.3 17.7 0.00 0.36 0.00 79 994.4
20200606052459 15 217 12.9 17.7 0.00 0.36 0.00 80 994.1
20200606051958 15 215 11.3 16.1 0.00 0.36 0.00 81 993.8
20200606051458 15 212 9.7 11.3 0.00 0.36 0.00 83 993.8
20200606050959 15 207 9.7 17.7 0.00 0.36 0.00 83 993.8
20200606050458 15 218 11.3 17.7 0.00 0.36 0.00 84 993.8
20200606045959 15 227 9.7 14.5 0.00 0.36 0.00 85 993.7
20200606045458 15 209 8.0 14.5 0.00 0.36 0.00 87 993.9
20200606044958 14 203 8.0 14.5 0.00 0.36 0.00 89 993.7
20200606044458 13 225 9.7 12.9 0.00 0.36 0.00 90 993.6
20200606043958 13 212 9.7 16.1 0.00 0.36 0.00 90 993.5
20200606043459 13 203 9.7 16.1 0.00 0.36 0.00 90 993.2
20200606042958 13 203 11.3 17.7 0.00 0.36 0.00 90 993.5
20200606042458 13 202 11.3 17.7 0.00 0.36 0.00 91 993.6
20200606041958 13 204 11.3 17.7 0.00 0.36 0.00 91 993.6
20200606041458 13 197 12.9 20.9 0.00 0.36 0.00 92 993.3
20200606040959 12 186 11.3 20.9 0.00 0.36 0.00 92 993.3
20200606040458 12 195 9.7 12.9 0.00 0.36 0.00 94 993.3
20200606035959 12 209 11.3 17.7 0.00 0.36 0.00 94 993.1
20200606035458 12 211 12.9 17.7 0.00 0.36 0.00 94 993.0
20200606034958 12 201 12.9 17.7 0.00 0.36 0.00 95 993.1
20200606034459 12 194 11.3 17.7 0.00 0.36 0.00 96 992.9
20200606033959 12 209 11.3 19.3 0.00 0.36 0.00 96 993.1
20200606033458 12 208 12.9 19.3 0.00 0.36 0.00 96 992.9
20200606032959 12 188 11.3 14.5 0.00 0.36 0.00 96 992.7
20200606032458 12 198 9.7 12.9 0.00 0.36 0.00 97 992.6
20200606031959 11 208 8.0 12.9 0.00 0.36 0.00 98 992.7
20200606031458 11 208 9.7 14.5 0.00 0.36 0.00 98 992.4
20200606030958 11 211 9.7 17.7 0.00 0.36 0.00 97 992.4
20200606030458 11 202 11.3 17.7 0.00 0.36 0.00 97 992.5
20200606025958 11 188 9.7 12.9 0.00 0.36 0.00 97 992.5
20200606025459 11 190 8.0 14.5 0.00 0.36 0.00 97 992.5
20200606024958 11 206 8.0 14.5 0.00 0.36 0.00 97 992.6
20200606024458 11 215 6.4 12.9 0.00 0.36 0.00 97 992.5
20200606023959 11 199 6.4 11.3 0.00 0.36 0.00 97 992.2
20200606023458 11 195 8.0 11.3 0.00 0.36 0.00 96 992.0
20200606022958 11 193 8.0 11.3 0.00 0.36 0.00 96 992.1
20200606022459 11 183 8.0 11.3 0.00 0.36 0.00 96 992.5
20200606021959 11 184 9.7 17.7 0.00 0.36 0.00 96 992.4
20200606021458 11 185 9.7 17.7 0.00 0.36 0.00 96 992.2
20200606020958 11 181 6.4 14.5 0.00 0.36 0.00 96 992.3
20200606020458 11 187 6.4 14.5 0.00 0.36 0.00 96 992.0
20200606015959 11 196 8.0 14.5 0.00 0.36 0.00 96 992.4
20200606015458 11 198 8.0 14.5 0.00 0.36 0.00 96 992.3
20200606014958 11 199 8.0 11.3 0.00 0.36 0.00 96 992.1
20200606014458 11 201 8.0 11.3 0.00 0.36 0.00 96 992.3
20200606013958 11 198 6.4 8.0 0.00 0.36 0.00 96 992.1
20200606013459 11 196 6.4 9.7 0.00 0.36 0.00 96 992.2
20200606012958 11 198 6.4 9.7 0.00 0.36 0.00 96 992.0
20200606012458 12 204 6.4 9.7 0.00 0.36 0.00 95 992.2
20200606011959 12 210 6.4 11.3 0.00 0.36 0.00 95 992.2
20200606011458 12 220 8.0 11.3 0.00 0.36 0.00 95 992.2
20200606010958 12 228 8.0 11.3 0.00 0.36 0.00 95 992.1
20200606010458 12 204 6.4 9.7 0.00 0.36 0.00 95 992.0
20200606005958 12 209 8.0 9.7 0.00 0.36 0.00 95 992.0
20200606005459 12 246 8.0 11.3 0.00 0.36 0.00 95 991.8
20200606004958 12 228 9.7 11.3 0.00 0.36 0.00 95 992.0
20200606004458 12 215 8.0 11.3 0.00 0.36 0.00 95 991.8
20200606003958 12 232 8.0 11.3 0.00 0.36 0.00 95 991.8
20200606003458 12 225 9.7 12.9 0.00 0.36 0.00 95 991.6
20200606002958 12 212 11.3 12.9 0.00 0.36 0.00 95 991.9
20200606002458 12 206 11.3 14.5 0.00 0.36 0.00 96 991.6
20200606001958 12 206 9.7 14.5 0.00 0.36 0.00 96 991.7
20200606001458 12 186 9.7 16.1 0.00 0.36 0.00 97 991.5
20200606000958 12 175 9.7 16.1 0.00 0.36 0.00 97 991.5
20200606000458 12 194 9.7 12.9 0.00 0.36 0.00 97 991.4
20200605235958 12 215 9.7 12.9 0.00 0.36 0.00 97 991.3
20200605235458 12 223 8.0 12.9 0.00 0.36 0.00 97 991.5
20200605234958 12 214 9.7 12.9 0.00 0.36 0.00 97 991.5
20200605234458 12 204 9.7 12.9 0.00 0.36 0.00 97 991.3
20200605233958 12 207 9.7 12.9 0.00 0.36 0.00 97 991.2
20200605233459 12 208 8.0 12.9 0.00 0.36 0.00 97 991.2
20200605232958 12 212 8.0 11.3 0.00 0.36 0.00 97 991.4
20200605232458 12 211 8.0 11.3 0.00 0.36 0.00 97 991.1
20200605231958 12 197 8.0 11.3 0.00 0.36 0.00 97 991.2
20200605231458 12 186 6.4 9.7 0.00 0.36 0.00 97 991.4
20200605230958 12 192 8.0 9.7 0.00 0.36 0.00 97 991.0
20200605230458 12 208 8.0 14.5 0.00 0.36 0.00 97 991.1
20200605225958 12 237 8.0 14.5 0.00 0.36 0.00 97 991.1
20200605225458 12 240 6.4 11.3 0.00 0.36 0.00 97 991.0
20200605224959 12 214 6.4 12.9 0.00 0.36 0.00 97 990.9
20200605224458 12 203 8.0 12.9 0.00 0.36 0.00 97 990.9
20200605223958 12 194 8.0 9.7 0.00 0.36 0.00 97 990.7
20200605223458 12 186 8.0 11.3 0.00 0.36 0.00 97 990.5
20200605222958 12 172 8.0 11.3 0.00 0.36 0.00 97 990.6
20200605222458 11 178 6.4 9.7 0.00 0.36 0.00 98 990.9
20200605221958 11 204 6.4 8.0 0.00 0.36 0.00 98 990.9
20200605221458 11 205 8.0 9.7 0.00 0.36 0.00 98 990.9
20200605220958 11 184 8.0 9.7 0.00 0.36 0.00 98 990.7
20200605220458 11 188 8.0 9.7 0.00 0.36 0.00 98 990.8
20200605215958 11 197 6.4 9.7 0.00 0.36 0.00 98 990.7
20200605215458 11 200 4.8 8.0 0.00 0.36 0.36 98 990.8
20200605214958 11 199 6.4 8.0 0.00 0.36 0.36 98 990.9
20200605214458 11 196 4.8 8.0 0.00 0.36 0.36 98 990.9
20200605213958 11 196 3.2 6.4 0.00 0.36 0.36 98 990.7
20200605213458 12 181 1.6 4.8 0.00 0.36 0.36 97 990.4
20200605212458 11 167 8.0 12.9 0.00 0.46 0.46 98 1002.0
20200605211958 11 165 8.0 12.9 0.00 0.46 0.46 98 1002.0
20200605211458 11 181 6.4 6.4 0.00 0.46 0.46 98 1002.0
20200605210958 11 186 4.8 6.4 0.00 0.46 0.46 98 1002.0
20200605210458 11 208 4.8 4.8 0.00 0.46 0.46 98 1002.2
20200605210001 11 209 4.8 4.8 0.00 0.46 0.46 98 1002.2
20200605205458 11 209 4.8 6.4 0.00 0.46 0.46 98 1002.3
20200605204958 11 238 6.4 6.4 0.00 0.46 0.46 98 1002.1
20200605204458 12 230 8.0 8.0 0.00 0.46 0.46 97 1002.2
20200605203958 12 202 6.4 8.0 0.00 0.46 0.46 97 1002.0
20200605203458 12 198 4.8 6.4 0.00 0.46 0.46 97 1002.0
20200605202958 12 232 6.4 8.0 0.00 0.46 0.46 97 1001.9
20200605202458 12 224 6.4 8.0 0.00 0.46 0.46 96 1001.9
20200605201959 12 201 6.4 6.4 0.00 0.46 0.46 96 1001.8
20200605201458 12 203 6.4 6.4 0.00 0.46 0.46 96 1001.7
20200605200958 12 201 6.4 9.7 0.46 0.46 0.46 96 1001.7
20200605200459 12 191 6.4 9.7 0.46 0.46 0.46 96 1001.6
20200605200001 12 181 6.4 8.0 0.46 0.46 0.46 96 1001.5
20200605195458 12 177 4.8 8.0 0.46 0.46 0.46 96 1001.6
20200605194958 12 170 4.8 6.4 0.46 0.46 0.46 96 1001.5
20200605194458 12 171 4.8 6.4 0.46 0.46 0.46 96 1001.5
20200605193958 12 174 4.8 6.4 0.46 0.46 0.46 97 1001.5
20200605193458 12 171 4.8 6.4 0.46 0.46 0.46 97 1001.7
20200605192958 12 174 4.8 6.4 0.46 0.46 0.46 96 1001.8
20200605192458 13 181 6.4 6.4 0.46 0.46 0.46 96 1001.7
20200605191958 13 181 6.4 12.9 0.46 0.46 0.46 96 1001.7
20200605191458 13 181 8.0 12.9 0.46 0.46 0.46 96 1001.7
20200605190958 18 181 12.9 12.9 0.00 0.00 0.00 73 1001.7
20200605190458 18 181 12.9 12.9 0.00 0.00 0.00 73 1001.7
20200605190001 18 181 12.9 12.9 0.00 0.00 0.00 73 1001.7
20200605185458 18 181 12.9 12.9 0.00 0.00 0.00 73 1001.7
20200605184958 18 181 12.9 12.9 0.00 0.00 0.00 73 1001.6
20200605184458 18 181 12.9 12.9 0.00 0.00 0.00 73 1001.4
20200605183959 18 181 12.9 12.9 0.00 0.00 0.00 73 1001.4
20200605183458 18 181 12.9 12.9 0.00 0.00 0.00 73 1001.4
20200605182959 18 181 12.9 12.9 0.00 0.00 0.00 73 1001.2